sensor_id;sensor_type;location;lat;lon;timestamp;P1;durP1;ratioP1;P2;durP2;ratioP2
5040;SDS011;2539;52.568;13.364;2023-08-30T00:01:00;7.27;;;5.10;;
5040;SDS011;2539;52.568;13.364;2023-08-30T00:03:26;7.80;;;4.40;;
5040;SDS011;2539;52.568;13.364;2023-08-30T00:05:52;5.60;;;4.60;;
5040;SDS011;2539;52.568;13.364;2023-08-30T00:08:19;5.40;;;4.80;;
5040;SDS011;2539;52.568;13.364;2023-08-30T00:10:45;7.27;;;5.20;;
5040;SDS011;2539;52.568;13.364;2023-08-30T00:13:12;5.87;;;4.50;;
5040;SDS011;2539;52.568;13.364;2023-08-30T00:15:40;6.23;;;4.80;;
5040;SDS011;2539;52.568;13.364;2023-08-30T00:18:07;5.10;;;4.60;;
5040;SDS011;2539;52.568;13.364;2023-08-30T00:20:33;6.70;;;5.20;;
5040;SDS011;2539;52.568;13.364;2023-08-30T00:22:59;6.47;;;5.20;;
5040;SDS011;2539;52.568;13.364;2023-08-30T00:25:28;7.43;;;5.40;;
5040;SDS011;2539;52.568;13.364;2023-08-30T00:27:54;7.70;;;5.40;;
5040;SDS011;2539;52.568;13.364;2023-08-30T00:30:20;5.37;;;4.80;;
5040;SDS011;2539;52.568;13.364;2023-08-30T00:32:47;8.20;;;5.00;;
5040;SDS011;2539;52.568;13.364;2023-08-30T00:35:13;5.40;;;4.50;;
5040;SDS011;2539;52.568;13.364;2023-08-30T00:37:39;5.50;;;5.00;;
5040;SDS011;2539;52.568;13.364;2023-08-30T00:40:06;5.30;;;4.90;;
5040;SDS011;2539;52.568;13.364;2023-08-30T00:42:32;5.77;;;4.87;;
5040;SDS011;2539;52.568;13.364;2023-08-30T00:44:59;5.63;;;4.60;;
5040;SDS011;2539;52.568;13.364;2023-08-30T00:47:25;5.27;;;4.80;;
5040;SDS011;2539;52.568;13.364;2023-08-30T00:49:51;5.27;;;4.80;;
5040;SDS011;2539;52.568;13.364;2023-08-30T00:52:18;7.30;;;4.80;;
5040;SDS011;2539;52.568;13.364;2023-08-30T00:54:44;6.77;;;4.63;;
5040;SDS011;2539;52.568;13.364;2023-08-30T00:57:11;5.07;;;4.67;;
5040;SDS011;2539;52.568;13.364;2023-08-30T00:59:38;5.67;;;5.20;;
5040;SDS011;2539;52.568;13.364;2023-08-30T01:02:04;5.53;;;5.03;;
5040;SDS011;2539;52.568;13.364;2023-08-30T01:04:31;6.03;;;4.43;;
5040;SDS011;2539;52.568;13.364;2023-08-30T01:06:58;7.73;;;5.03;;
5040;SDS011;2539;52.568;13.364;2023-08-30T01:09:24;5.83;;;5.33;;
5040;SDS011;2539;52.568;13.364;2023-08-30T01:14:57;7.90;;;4.97;;
5040;SDS011;2539;52.568;13.364;2023-08-30T01:17:28;6.77;;;5.10;;
5040;SDS011;2539;52.568;13.364;2023-08-30T01:20:05;6.43;;;4.70;;
5040;SDS011;2539;52.568;13.364;2023-08-30T01:22:54;5.20;;;4.80;;
5040;SDS011;2539;52.568;13.364;2023-08-30T01:28:24;5.13;;;4.63;;
5040;SDS011;2539;52.568;13.364;2023-08-30T01:30:52;4.93;;;4.50;;
5040;SDS011;2539;52.568;13.364;2023-08-30T01:33:22;6.73;;;4.43;;
5040;SDS011;2539;52.568;13.364;2023-08-30T01:35:49;5.83;;;4.80;;
5040;SDS011;2539;52.568;13.364;2023-08-30T01:38:15;4.83;;;4.33;;
5040;SDS011;2539;52.568;13.364;2023-08-30T01:40:42;5.40;;;4.43;;
5040;SDS011;2539;52.568;13.364;2023-08-30T01:43:09;7.00;;;4.80;;
5040;SDS011;2539;52.568;13.364;2023-08-30T01:45:38;5.03;;;3.90;;
5040;SDS011;2539;52.568;13.364;2023-08-30T01:48:07;4.70;;;4.30;;
5040;SDS011;2539;52.568;13.364;2023-08-30T01:50:36;5.30;;;4.80;;
5040;SDS011;2539;52.568;13.364;2023-08-30T01:53:04;6.07;;;4.20;;
5040;SDS011;2539;52.568;13.364;2023-08-30T01:55:32;5.40;;;4.00;;
5040;SDS011;2539;52.568;13.364;2023-08-30T01:57:59;7.87;;;3.70;;
5040;SDS011;2539;52.568;13.364;2023-08-30T02:00:26;4.77;;;3.77;;
5040;SDS011;2539;52.568;13.364;2023-08-30T02:02:52;5.83;;;4.50;;
5040;SDS011;2539;52.568;13.364;2023-08-30T02:05:18;4.23;;;3.60;;
5040;SDS011;2539;52.568;13.364;2023-08-30T02:07:54;4.70;;;3.73;;
5040;SDS011;2539;52.568;13.364;2023-08-30T02:10:36;3.90;;;3.60;;
5040;SDS011;2539;52.568;13.364;2023-08-30T02:13:05;4.70;;;4.17;;
5040;SDS011;2539;52.568;13.364;2023-08-30T02:15:33;4.60;;;4.20;;
5040;SDS011;2539;52.568;13.364;2023-08-30T02:18:00;4.53;;;4.00;;
5040;SDS011;2539;52.568;13.364;2023-08-30T02:20:29;6.00;;;4.13;;
5040;SDS011;2539;52.568;13.364;2023-08-30T02:22:58;4.33;;;3.93;;
5040;SDS011;2539;52.568;13.364;2023-08-30T02:25:25;4.27;;;3.97;;
5040;SDS011;2539;52.568;13.364;2023-08-30T02:27:51;6.47;;;4.60;;
5040;SDS011;2539;52.568;13.364;2023-08-30T02:30:18;3.97;;;3.67;;
5040;SDS011;2539;52.568;13.364;2023-08-30T02:32:45;5.90;;;4.00;;
5040;SDS011;2539;52.568;13.364;2023-08-30T02:35:11;6.13;;;4.30;;
5040;SDS011;2539;52.568;13.364;2023-08-30T02:37:37;4.90;;;4.50;;
5040;SDS011;2539;52.568;13.364;2023-08-30T02:40:05;8.93;;;4.30;;
5040;SDS011;2539;52.568;13.364;2023-08-30T02:42:32;5.10;;;4.43;;
5040;SDS011;2539;52.568;13.364;2023-08-30T02:44:59;4.70;;;4.30;;
5040;SDS011;2539;52.568;13.364;2023-08-30T02:47:25;6.20;;;4.47;;
5040;SDS011;2539;52.568;13.364;2023-08-30T02:49:51;5.37;;;4.87;;
5040;SDS011;2539;52.568;13.364;2023-08-30T02:52:18;5.33;;;4.83;;
5040;SDS011;2539;52.568;13.364;2023-08-30T02:54:44;4.67;;;4.20;;
5040;SDS011;2539;52.568;13.364;2023-08-30T02:57:10;4.90;;;4.50;;
5040;SDS011;2539;52.568;13.364;2023-08-30T02:59:36;5.43;;;4.50;;
5040;SDS011;2539;52.568;13.364;2023-08-30T03:02:02;4.53;;;4.13;;
5040;SDS011;2539;52.568;13.364;2023-08-30T03:04:28;4.83;;;4.43;;
5040;SDS011;2539;52.568;13.364;2023-08-30T03:06:53;5.63;;;4.27;;
5040;SDS011;2539;52.568;13.364;2023-08-30T03:09:19;5.20;;;4.73;;
5040;SDS011;2539;52.568;13.364;2023-08-30T03:11:45;7.50;;;4.50;;
5040;SDS011;2539;52.568;13.364;2023-08-30T03:14:11;5.23;;;4.60;;
5040;SDS011;2539;52.568;13.364;2023-08-30T03:16:37;5.20;;;4.80;;
5040;SDS011;2539;52.568;13.364;2023-08-30T03:19:04;7.60;;;5.17;;
5040;SDS011;2539;52.568;13.364;2023-08-30T03:21:30;6.27;;;5.67;;
5040;SDS011;2539;52.568;13.364;2023-08-30T03:23:56;5.57;;;4.97;;
5040;SDS011;2539;52.568;13.364;2023-08-30T03:26:22;5.30;;;4.80;;
5040;SDS011;2539;52.568;13.364;2023-08-30T03:28:49;6.20;;;5.60;;
5040;SDS011;2539;52.568;13.364;2023-08-30T03:31:16;6.10;;;5.17;;
5040;SDS011;2539;52.568;13.364;2023-08-30T03:33:43;5.43;;;5.03;;
5040;SDS011;2539;52.568;13.364;2023-08-30T03:36:10;5.80;;;5.30;;
5040;SDS011;2539;52.568;13.364;2023-08-30T03:38:38;9.83;;;6.63;;
5040;SDS011;2539;52.568;13.364;2023-08-30T03:41:05;5.83;;;5.30;;
5040;SDS011;2539;52.568;13.364;2023-08-30T03:43:31;5.60;;;5.10;;
5040;SDS011;2539;52.568;13.364;2023-08-30T03:45:59;8.97;;;5.40;;
5040;SDS011;2539;52.568;13.364;2023-08-30T03:48:25;5.77;;;5.27;;
5040;SDS011;2539;52.568;13.364;2023-08-30T03:50:51;5.67;;;5.17;;
5040;SDS011;2539;52.568;13.364;2023-08-30T03:53:16;7.53;;;5.60;;
5040;SDS011;2539;52.568;13.364;2023-08-30T03:55:42;6.47;;;5.87;;
5040;SDS011;2539;52.568;13.364;2023-08-30T03:58:08;6.20;;;5.60;;
5040;SDS011;2539;52.568;13.364;2023-08-30T04:00:38;6.27;;;5.67;;
5040;SDS011;2539;52.568;13.364;2023-08-30T04:03:08;6.30;;;5.80;;
5040;SDS011;2539;52.568;13.364;2023-08-30T04:05:37;7.03;;;6.30;;
5040;SDS011;2539;52.568;13.364;2023-08-30T04:08:03;10.73;;;6.63;;
5040;SDS011;2539;52.568;13.364;2023-08-30T04:10:34;13.53;;;7.80;;
5040;SDS011;2539;52.568;13.364;2023-08-30T04:13:04;6.27;;;5.77;;
5040;SDS011;2539;52.568;13.364;2023-08-30T04:15:35;7.30;;;6.70;;
5040;SDS011;2539;52.568;13.364;2023-08-30T04:18:02;9.53;;;8.57;;
5040;SDS011;2539;52.568;13.364;2023-08-30T04:20:29;7.13;;;6.50;;
5040;SDS011;2539;52.568;13.364;2023-08-30T04:22:56;7.00;;;6.30;;
5040;SDS011;2539;52.568;13.364;2023-08-30T04:25:23;7.13;;;6.63;;
5040;SDS011;2539;52.568;13.364;2023-08-30T04:27:50;8.50;;;7.67;;
5040;SDS011;2539;52.568;13.364;2023-08-30T04:30:16;8.83;;;8.00;;
5040;SDS011;2539;52.568;13.364;2023-08-30T04:32:43;7.20;;;6.60;;
5040;SDS011;2539;52.568;13.364;2023-08-30T04:35:09;6.77;;;6.17;;
5040;SDS011;2539;52.568;13.364;2023-08-30T04:37:36;6.10;;;5.60;;
5040;SDS011;2539;52.568;13.364;2023-08-30T04:40:04;5.70;;;5.03;;
5040;SDS011;2539;52.568;13.364;2023-08-30T04:42:33;5.23;;;4.83;;
5040;SDS011;2539;52.568;13.364;2023-08-30T04:44:58;8.20;;;5.37;;
5040;SDS011;2539;52.568;13.364;2023-08-30T04:47:26;7.10;;;5.77;;
5040;SDS011;2539;52.568;13.364;2023-08-30T04:49:53;5.93;;;5.53;;
5040;SDS011;2539;52.568;13.364;2023-08-30T04:52:18;5.40;;;4.90;;
5040;SDS011;2539;52.568;13.364;2023-08-30T04:54:45;5.77;;;5.17;;
5040;SDS011;2539;52.568;13.364;2023-08-30T04:57:11;6.80;;;5.80;;
5040;SDS011;2539;52.568;13.364;2023-08-30T04:59:40;6.33;;;5.83;;
5040;SDS011;2539;52.568;13.364;2023-08-30T05:02:06;6.20;;;5.70;;
5040;SDS011;2539;52.568;13.364;2023-08-30T05:04:33;6.13;;;5.63;;
5040;SDS011;2539;52.568;13.364;2023-08-30T05:06:59;10.27;;;4.83;;
5040;SDS011;2539;52.568;13.364;2023-08-30T05:09:26;7.43;;;5.57;;
5040;SDS011;2539;52.568;13.364;2023-08-30T05:11:52;6.50;;;6.00;;
5040;SDS011;2539;52.568;13.364;2023-08-30T05:14:22;6.30;;;5.70;;
5040;SDS011;2539;52.568;13.364;2023-08-30T05:16:49;11.23;;;9.00;;
5040;SDS011;2539;52.568;13.364;2023-08-30T05:19:16;7.70;;;7.10;;
5040;SDS011;2539;52.568;13.364;2023-08-30T05:21:43;6.67;;;6.17;;
5040;SDS011;2539;52.568;13.364;2023-08-30T05:24:08;6.33;;;5.83;;
5040;SDS011;2539;52.568;13.364;2023-08-30T05:26:35;5.93;;;5.40;;
5040;SDS011;2539;52.568;13.364;2023-08-30T05:29:01;6.23;;;5.73;;
5040;SDS011;2539;52.568;13.364;2023-08-30T05:31:27;6.63;;;6.00;;
5040;SDS011;2539;52.568;13.364;2023-08-30T05:33:53;5.67;;;5.17;;
5040;SDS011;2539;52.568;13.364;2023-08-30T05:36:20;6.37;;;5.73;;
5040;SDS011;2539;52.568;13.364;2023-08-30T05:38:46;8.77;;;5.07;;
5040;SDS011;2539;52.568;13.364;2023-08-30T05:41:12;7.20;;;5.07;;
5040;SDS011;2539;52.568;13.364;2023-08-30T05:43:39;5.83;;;4.77;;
5040;SDS011;2539;52.568;13.364;2023-08-30T05:46:05;6.13;;;4.87;;
5040;SDS011;2539;52.568;13.364;2023-08-30T05:48:37;5.60;;;5.10;;
5040;SDS011;2539;52.568;13.364;2023-08-30T05:51:03;5.93;;;5.43;;
5040;SDS011;2539;52.568;13.364;2023-08-30T05:53:28;5.90;;;5.37;;
5040;SDS011;2539;52.568;13.364;2023-08-30T05:55:54;5.93;;;5.33;;
5040;SDS011;2539;52.568;13.364;2023-08-30T05:58:20;6.17;;;4.90;;
5040;SDS011;2539;52.568;13.364;2023-08-30T06:00:46;6.77;;;4.90;;
5040;SDS011;2539;52.568;13.364;2023-08-30T06:03:12;14.13;;;5.20;;
5040;SDS011;2539;52.568;13.364;2023-08-30T06:05:37;7.47;;;6.77;;
5040;SDS011;2539;52.568;13.364;2023-08-30T06:08:03;6.37;;;5.87;;
5040;SDS011;2539;52.568;13.364;2023-08-30T06:10:30;5.40;;;4.90;;
5040;SDS011;2539;52.568;13.364;2023-08-30T06:12:56;5.20;;;4.80;;
5040;SDS011;2539;52.568;13.364;2023-08-30T06:15:22;5.87;;;5.37;;
5040;SDS011;2539;52.568;13.364;2023-08-30T06:17:48;5.40;;;4.90;;
5040;SDS011;2539;52.568;13.364;2023-08-30T06:20:15;6.93;;;4.80;;
5040;SDS011;2539;52.568;13.364;2023-08-30T06:22:42;5.30;;;4.10;;
5040;SDS011;2539;52.568;13.364;2023-08-30T06:25:09;5.13;;;4.63;;
5040;SDS011;2539;52.568;13.364;2023-08-30T06:27:40;5.00;;;4.50;;
5040;SDS011;2539;52.568;13.364;2023-08-30T06:30:09;4.60;;;4.20;;
5040;SDS011;2539;52.568;13.364;2023-08-30T06:32:36;10.60;;;4.57;;
5040;SDS011;2539;52.568;13.364;2023-08-30T06:35:02;4.77;;;3.87;;
5040;SDS011;2539;52.568;13.364;2023-08-30T06:37:29;6.70;;;4.20;;
5040;SDS011;2539;52.568;13.364;2023-08-30T06:39:56;4.40;;;4.00;;
5040;SDS011;2539;52.568;13.364;2023-08-30T06:42:22;9.20;;;4.00;;
5040;SDS011;2539;52.568;13.364;2023-08-30T06:44:50;4.60;;;4.20;;
5040;SDS011;2539;52.568;13.364;2023-08-30T06:47:16;4.60;;;4.20;;
5040;SDS011;2539;52.568;13.364;2023-08-30T06:49:43;5.30;;;4.90;;
5040;SDS011;2539;52.568;13.364;2023-08-30T06:52:09;7.07;;;4.47;;
5040;SDS011;2539;52.568;13.364;2023-08-30T06:54:35;4.73;;;4.33;;
5040;SDS011;2539;52.568;13.364;2023-08-30T06:57:02;4.40;;;4.00;;
5040;SDS011;2539;52.568;13.364;2023-08-30T06:59:28;4.60;;;4.20;;
5040;SDS011;2539;52.568;13.364;2023-08-30T07:01:55;5.60;;;4.80;;
5040;SDS011;2539;52.568;13.364;2023-08-30T07:04:22;8.57;;;4.37;;
5040;SDS011;2539;52.568;13.364;2023-08-30T07:06:48;13.57;;;4.60;;
5040;SDS011;2539;52.568;13.364;2023-08-30T07:09:14;4.30;;;3.90;;
5040;SDS011;2539;52.568;13.364;2023-08-30T07:11:42;6.17;;;4.23;;
5040;SDS011;2539;52.568;13.364;2023-08-30T07:14:10;4.10;;;3.80;;
5040;SDS011;2539;52.568;13.364;2023-08-30T07:16:38;4.60;;;4.20;;
5040;SDS011;2539;52.568;13.364;2023-08-30T07:19:04;4.80;;;3.93;;
5040;SDS011;2539;52.568;13.364;2023-08-30T07:21:31;4.13;;;3.77;;
5040;SDS011;2539;52.568;13.364;2023-08-30T07:23:57;4.10;;;3.70;;
5040;SDS011;2539;52.568;13.364;2023-08-30T07:26:23;3.93;;;3.50;;
5040;SDS011;2539;52.568;13.364;2023-08-30T07:28:50;4.10;;;3.70;;
5040;SDS011;2539;52.568;13.364;2023-08-30T07:31:16;4.03;;;3.63;;
5040;SDS011;2539;52.568;13.364;2023-08-30T07:33:44;4.13;;;3.73;;
5040;SDS011;2539;52.568;13.364;2023-08-30T07:36:10;3.40;;;2.97;;
5040;SDS011;2539;52.568;13.364;2023-08-30T07:38:38;8.20;;;3.80;;
5040;SDS011;2539;52.568;13.364;2023-08-30T07:41:04;5.83;;;3.33;;
5040;SDS011;2539;52.568;13.364;2023-08-30T07:43:30;4.90;;;3.57;;
5040;SDS011;2539;52.568;13.364;2023-08-30T07:45:57;4.40;;;3.03;;
5040;SDS011;2539;52.568;13.364;2023-08-30T07:48:24;4.50;;;3.37;;
5040;SDS011;2539;52.568;13.364;2023-08-30T07:50:50;4.00;;;2.60;;
5040;SDS011;2539;52.568;13.364;2023-08-30T07:53:17;3.27;;;2.77;;
5040;SDS011;2539;52.568;13.364;2023-08-30T07:55:47;3.67;;;2.70;;
5040;SDS011;2539;52.568;13.364;2023-08-30T07:58:16;6.57;;;3.53;;
5040;SDS011;2539;52.568;13.364;2023-08-30T08:00:43;3.00;;;2.70;;
5040;SDS011;2539;52.568;13.364;2023-08-30T08:03:09;6.03;;;2.80;;
5040;SDS011;2539;52.568;13.364;2023-08-30T08:05:36;6.23;;;2.47;;
5040;SDS011;2539;52.568;13.364;2023-08-30T08:08:03;3.83;;;2.23;;
5040;SDS011;2539;52.568;13.364;2023-08-30T08:10:33;4.47;;;3.37;;
5040;SDS011;2539;52.568;13.364;2023-08-30T08:13:00;4.30;;;2.40;;
5040;SDS011;2539;52.568;13.364;2023-08-30T08:15:28;5.53;;;2.13;;
5040;SDS011;2539;52.568;13.364;2023-08-30T08:17:56;3.20;;;2.60;;
5040;SDS011;2539;52.568;13.364;2023-08-30T08:20:23;3.17;;;2.50;;
5040;SDS011;2539;52.568;13.364;2023-08-30T08:22:49;3.33;;;2.30;;
5040;SDS011;2539;52.568;13.364;2023-08-30T08:25:15;3.30;;;2.30;;
5040;SDS011;2539;52.568;13.364;2023-08-30T08:27:42;2.50;;;2.10;;
5040;SDS011;2539;52.568;13.364;2023-08-30T08:30:08;2.70;;;2.30;;
5040;SDS011;2539;52.568;13.364;2023-08-30T08:32:36;3.60;;;2.30;;
5040;SDS011;2539;52.568;13.364;2023-08-30T08:35:03;4.00;;;2.57;;
5040;SDS011;2539;52.568;13.364;2023-08-30T08:37:29;4.27;;;3.23;;
5040;SDS011;2539;52.568;13.364;2023-08-30T08:39:54;6.53;;;2.80;;
5040;SDS011;2539;52.568;13.364;2023-08-30T08:42:20;3.57;;;2.90;;
5040;SDS011;2539;52.568;13.364;2023-08-30T08:44:47;3.30;;;2.73;;
5040;SDS011;2539;52.568;13.364;2023-08-30T08:47:16;3.83;;;2.73;;
5040;SDS011;2539;52.568;13.364;2023-08-30T08:49:44;3.33;;;2.83;;
5040;SDS011;2539;52.568;13.364;2023-08-30T08:52:16;4.33;;;2.57;;
5040;SDS011;2539;52.568;13.364;2023-08-30T08:54:42;3.50;;;2.47;;
5040;SDS011;2539;52.568;13.364;2023-08-30T08:57:09;6.57;;;3.63;;
5040;SDS011;2539;52.568;13.364;2023-08-30T08:59:35;3.90;;;3.03;;
5040;SDS011;2539;52.568;13.364;2023-08-30T09:02:01;5.07;;;4.07;;
5040;SDS011;2539;52.568;13.364;2023-08-30T09:04:31;4.30;;;2.77;;
5040;SDS011;2539;52.568;13.364;2023-08-30T09:06:58;4.70;;;2.90;;
5040;SDS011;2539;52.568;13.364;2023-08-30T09:09:26;4.13;;;2.50;;
5040;SDS011;2539;52.568;13.364;2023-08-30T09:11:52;6.50;;;2.73;;
5040;SDS011;2539;52.568;13.364;2023-08-30T09:14:19;4.10;;;2.70;;
5040;SDS011;2539;52.568;13.364;2023-08-30T09:16:55;5.40;;;2.57;;
5040;SDS011;2539;52.568;13.364;2023-08-30T09:19:21;4.30;;;2.67;;
5040;SDS011;2539;52.568;13.364;2023-08-30T09:21:54;3.13;;;2.67;;
5040;SDS011;2539;52.568;13.364;2023-08-30T09:24:21;10.00;;;3.00;;
5040;SDS011;2539;52.568;13.364;2023-08-30T09:26:49;3.70;;;2.33;;
5040;SDS011;2539;52.568;13.364;2023-08-30T09:29:17;4.47;;;2.67;;
5040;SDS011;2539;52.568;13.364;2023-08-30T09:31:45;2.57;;;2.30;;
5040;SDS011;2539;52.568;13.364;2023-08-30T09:34:12;3.77;;;2.70;;
5040;SDS011;2539;52.568;13.364;2023-08-30T09:36:39;5.33;;;2.60;;
5040;SDS011;2539;52.568;13.364;2023-08-30T09:39:07;4.17;;;2.23;;
5040;SDS011;2539;52.568;13.364;2023-08-30T09:41:41;2.97;;;2.30;;
5040;SDS011;2539;52.568;13.364;2023-08-30T09:44:11;4.80;;;2.87;;
5040;SDS011;2539;52.568;13.364;2023-08-30T09:46:46;3.47;;;3.17;;
5040;SDS011;2539;52.568;13.364;2023-08-30T09:49:17;3.00;;;2.30;;
5040;SDS011;2539;52.568;13.364;2023-08-30T09:51:46;3.60;;;2.27;;
5040;SDS011;2539;52.568;13.364;2023-08-30T09:54:26;2.73;;;2.47;;
5040;SDS011;2539;52.568;13.364;2023-08-30T09:56:54;5.87;;;2.77;;
5040;SDS011;2539;52.568;13.364;2023-08-30T09:59:23;4.13;;;2.40;;
5040;SDS011;2539;52.568;13.364;2023-08-30T10:01:50;4.30;;;2.60;;
5040;SDS011;2539;52.568;13.364;2023-08-30T10:04:18;4.10;;;2.30;;
5040;SDS011;2539;52.568;13.364;2023-08-30T10:06:45;3.07;;;1.90;;
5040;SDS011;2539;52.568;13.364;2023-08-30T10:09:13;6.33;;;2.10;;
5040;SDS011;2539;52.568;13.364;2023-08-30T10:11:40;3.70;;;2.53;;
5040;SDS011;2539;52.568;13.364;2023-08-30T10:14:07;4.00;;;2.00;;
5040;SDS011;2539;52.568;13.364;2023-08-30T10:16:42;2.67;;;1.80;;
5040;SDS011;2539;52.568;13.364;2023-08-30T10:19:14;3.60;;;1.60;;
5040;SDS011;2539;52.568;13.364;2023-08-30T10:21:42;2.50;;;1.60;;
5040;SDS011;2539;52.568;13.364;2023-08-30T10:24:11;3.10;;;2.40;;
5040;SDS011;2539;52.568;13.364;2023-08-30T10:26:39;3.10;;;1.80;;
5040;SDS011;2539;52.568;13.364;2023-08-30T10:29:07;2.30;;;1.43;;
5040;SDS011;2539;52.568;13.364;2023-08-30T10:31:37;2.37;;;1.80;;
5040;SDS011;2539;52.568;13.364;2023-08-30T10:34:12;4.00;;;2.10;;
5040;SDS011;2539;52.568;13.364;2023-08-30T10:36:41;2.40;;;2.13;;
5040;SDS011;2539;52.568;13.364;2023-08-30T10:39:11;2.53;;;1.50;;
5040;SDS011;2539;52.568;13.364;2023-08-30T10:41:53;4.17;;;3.70;;
5040;SDS011;2539;52.568;13.364;2023-08-30T10:44:23;5.67;;;4.60;;
5040;SDS011;2539;52.568;13.364;2023-08-30T10:46:53;3.70;;;2.33;;
5040;SDS011;2539;52.568;13.364;2023-08-30T10:49:20;6.83;;;1.97;;
5040;SDS011;2539;52.568;13.364;2023-08-30T10:51:57;2.57;;;1.90;;
5040;SDS011;2539;52.568;13.364;2023-08-30T10:54:24;2.90;;;2.60;;
5040;SDS011;2539;52.568;13.364;2023-08-30T10:59:20;2.90;;;1.70;;
5040;SDS011;2539;52.568;13.364;2023-08-30T11:01:47;3.17;;;1.70;;
5040;SDS011;2539;52.568;13.364;2023-08-30T11:04:15;2.77;;;1.90;;
5040;SDS011;2539;52.568;13.364;2023-08-30T11:06:45;5.20;;;2.50;;
5040;SDS011;2539;52.568;13.364;2023-08-30T11:09:13;4.97;;;4.47;;
5040;SDS011;2539;52.568;13.364;2023-08-30T11:11:40;2.40;;;2.10;;
5040;SDS011;2539;52.568;13.364;2023-08-30T11:14:07;4.67;;;3.97;;
5040;SDS011;2539;52.568;13.364;2023-08-30T11:16:34;5.27;;;2.60;;
5040;SDS011;2539;52.568;13.364;2023-08-30T11:19:02;3.77;;;2.67;;
5040;SDS011;2539;52.568;13.364;2023-08-30T11:21:33;4.90;;;2.00;;
5040;SDS011;2539;52.568;13.364;2023-08-30T11:24:03;2.67;;;2.00;;
5040;SDS011;2539;52.568;13.364;2023-08-30T11:26:29;3.90;;;1.83;;
5040;SDS011;2539;52.568;13.364;2023-08-30T11:28:55;4.93;;;2.60;;
5040;SDS011;2539;52.568;13.364;2023-08-30T11:31:21;4.60;;;2.40;;
5040;SDS011;2539;52.568;13.364;2023-08-30T11:33:53;3.60;;;2.00;;
5040;SDS011;2539;52.568;13.364;2023-08-30T11:36:25;4.70;;;2.20;;
5040;SDS011;2539;52.568;13.364;2023-08-30T11:38:53;3.23;;;1.83;;
5040;SDS011;2539;52.568;13.364;2023-08-30T11:41:20;3.00;;;2.07;;
5040;SDS011;2539;52.568;13.364;2023-08-30T11:43:47;5.60;;;2.20;;
5040;SDS011;2539;52.568;13.364;2023-08-30T11:46:14;8.23;;;3.00;;
5040;SDS011;2539;52.568;13.364;2023-08-30T11:48:40;3.33;;;2.00;;
5040;SDS011;2539;52.568;13.364;2023-08-30T11:51:09;2.60;;;2.10;;
5040;SDS011;2539;52.568;13.364;2023-08-30T11:53:36;3.00;;;2.00;;
5040;SDS011;2539;52.568;13.364;2023-08-30T11:56:03;2.57;;;1.67;;
5040;SDS011;2539;52.568;13.364;2023-08-30T11:58:34;3.20;;;1.90;;
5040;SDS011;2539;52.568;13.364;2023-08-30T12:01:02;2.83;;;2.00;;
5040;SDS011;2539;52.568;13.364;2023-08-30T12:03:29;2.70;;;1.93;;
5040;SDS011;2539;52.568;13.364;2023-08-30T12:05:57;2.93;;;2.00;;
5040;SDS011;2539;52.568;13.364;2023-08-30T12:08:27;2.57;;;2.10;;
5040;SDS011;2539;52.568;13.364;2023-08-30T12:10:55;3.60;;;2.03;;
5040;SDS011;2539;52.568;13.364;2023-08-30T12:13:25;6.53;;;1.80;;
5040;SDS011;2539;52.568;13.364;2023-08-30T12:15:56;2.67;;;1.70;;
5040;SDS011;2539;52.568;13.364;2023-08-30T12:21:00;4.00;;;2.00;;
5040;SDS011;2539;52.568;13.364;2023-08-30T12:23:29;2.70;;;2.20;;
5040;SDS011;2539;52.568;13.364;2023-08-30T12:25:57;3.33;;;2.47;;
5040;SDS011;2539;52.568;13.364;2023-08-30T12:28:25;3.70;;;2.30;;
5040;SDS011;2539;52.568;13.364;2023-08-30T12:30:53;3.73;;;2.37;;
5040;SDS011;2539;52.568;13.364;2023-08-30T12:33:20;2.23;;;1.50;;
5040;SDS011;2539;52.568;13.364;2023-08-30T12:35:47;4.17;;;3.77;;
5040;SDS011;2539;52.568;13.364;2023-08-30T12:38:14;5.37;;;3.50;;
5040;SDS011;2539;52.568;13.364;2023-08-30T12:40:44;7.70;;;4.47;;
5040;SDS011;2539;52.568;13.364;2023-08-30T12:43:12;9.03;;;6.57;;
5040;SDS011;2539;52.568;13.364;2023-08-30T12:45:39;3.80;;;3.47;;
5040;SDS011;2539;52.568;13.364;2023-08-30T12:48:10;2.50;;;2.00;;
5040;SDS011;2539;52.568;13.364;2023-08-30T12:50:39;12.73;;;9.40;;
5040;SDS011;2539;52.568;13.364;2023-08-30T12:53:06;5.60;;;3.00;;
5040;SDS011;2539;52.568;13.364;2023-08-30T12:55:33;8.77;;;7.87;;
5040;SDS011;2539;52.568;13.364;2023-08-30T12:58:00;4.17;;;2.47;;
5040;SDS011;2539;52.568;13.364;2023-08-30T13:00:27;3.27;;;2.97;;
5040;SDS011;2539;52.568;13.364;2023-08-30T13:02:53;4.87;;;2.40;;
5040;SDS011;2539;52.568;13.364;2023-08-30T13:05:20;4.40;;;2.90;;
5040;SDS011;2539;52.568;13.364;2023-08-30T13:07:47;3.50;;;2.40;;
5040;SDS011;2539;52.568;13.364;2023-08-30T13:10:13;4.63;;;2.47;;
5040;SDS011;2539;52.568;13.364;2023-08-30T13:12:39;3.50;;;2.60;;
5040;SDS011;2539;52.568;13.364;2023-08-30T13:15:05;3.80;;;2.10;;
5040;SDS011;2539;52.568;13.364;2023-08-30T13:17:31;3.07;;;2.60;;
5040;SDS011;2539;52.568;13.364;2023-08-30T13:19:58;6.17;;;3.47;;
5040;SDS011;2539;52.568;13.364;2023-08-30T13:22:24;3.87;;;3.47;;
5040;SDS011;2539;52.568;13.364;2023-08-30T13:24:51;3.70;;;2.63;;
5040;SDS011;2539;52.568;13.364;2023-08-30T13:27:18;2.67;;;2.20;;
5040;SDS011;2539;52.568;13.364;2023-08-30T13:29:45;2.53;;;2.13;;
5040;SDS011;2539;52.568;13.364;2023-08-30T13:32:11;3.30;;;2.17;;
5040;SDS011;2539;52.568;13.364;2023-08-30T13:34:38;2.40;;;1.87;;
5040;SDS011;2539;52.568;13.364;2023-08-30T13:37:11;3.83;;;2.70;;
5040;SDS011;2539;52.568;13.364;2023-08-30T13:39:39;2.73;;;2.37;;
5040;SDS011;2539;52.568;13.364;2023-08-30T13:42:05;2.30;;;1.87;;
5040;SDS011;2539;52.568;13.364;2023-08-30T13:44:32;2.63;;;2.20;;
5040;SDS011;2539;52.568;13.364;2023-08-30T13:46:58;3.50;;;1.93;;
5040;SDS011;2539;52.568;13.364;2023-08-30T13:49:24;2.10;;;1.83;;
5040;SDS011;2539;52.568;13.364;2023-08-30T13:51:52;3.97;;;1.77;;
5040;SDS011;2539;52.568;13.364;2023-08-30T13:54:18;4.27;;;2.77;;
5040;SDS011;2539;52.568;13.364;2023-08-30T13:56:44;3.10;;;2.20;;
5040;SDS011;2539;52.568;13.364;2023-08-30T13:59:11;2.80;;;2.50;;
5040;SDS011;2539;52.568;13.364;2023-08-30T14:01:37;2.80;;;2.20;;
5040;SDS011;2539;52.568;13.364;2023-08-30T14:04:03;3.50;;;2.60;;
5040;SDS011;2539;52.568;13.364;2023-08-30T14:06:30;4.73;;;3.60;;
5040;SDS011;2539;52.568;13.364;2023-08-30T14:08:58;3.27;;;2.33;;
5040;SDS011;2539;52.568;13.364;2023-08-30T14:11:24;3.93;;;3.20;;
5040;SDS011;2539;52.568;13.364;2023-08-30T14:13:50;3.40;;;2.47;;
5040;SDS011;2539;52.568;13.364;2023-08-30T14:16:17;4.10;;;2.10;;
5040;SDS011;2539;52.568;13.364;2023-08-30T14:18:44;4.00;;;2.00;;
5040;SDS011;2539;52.568;13.364;2023-08-30T14:21:10;3.00;;;2.10;;
5040;SDS011;2539;52.568;13.364;2023-08-30T14:23:36;4.10;;;2.37;;
5040;SDS011;2539;52.568;13.364;2023-08-30T14:26:03;3.20;;;2.00;;
5040;SDS011;2539;52.568;13.364;2023-08-30T14:28:40;5.80;;;2.00;;
5040;SDS011;2539;52.568;13.364;2023-08-30T14:31:09;2.90;;;1.90;;
5040;SDS011;2539;52.568;13.364;2023-08-30T14:33:36;3.10;;;1.60;;
5040;SDS011;2539;52.568;13.364;2023-08-30T14:36:03;2.93;;;2.10;;
5040;SDS011;2539;52.568;13.364;2023-08-30T14:38:33;4.10;;;2.50;;
5040;SDS011;2539;52.568;13.364;2023-08-30T14:40:59;3.50;;;1.93;;
5040;SDS011;2539;52.568;13.364;2023-08-30T14:43:26;2.70;;;1.97;;
5040;SDS011;2539;52.568;13.364;2023-08-30T14:46:02;2.67;;;2.13;;
5040;SDS011;2539;52.568;13.364;2023-08-30T14:48:31;17.80;;;16.17;;
5040;SDS011;2539;52.568;13.364;2023-08-30T14:50:58;2.97;;;1.93;;
5040;SDS011;2539;52.568;13.364;2023-08-30T14:53:25;2.90;;;2.43;;
5040;SDS011;2539;52.568;13.364;2023-08-30T14:55:51;2.67;;;1.70;;
5040;SDS011;2539;52.568;13.364;2023-08-30T14:58:18;3.13;;;1.93;;
5040;SDS011;2539;52.568;13.364;2023-08-30T15:00:47;5.57;;;3.20;;
5040;SDS011;2539;52.568;13.364;2023-08-30T15:03:13;7.83;;;3.37;;
5040;SDS011;2539;52.568;13.364;2023-08-30T15:05:40;3.33;;;2.03;;
5040;SDS011;2539;52.568;13.364;2023-08-30T15:08:06;2.53;;;1.60;;
5040;SDS011;2539;52.568;13.364;2023-08-30T15:10:33;4.33;;;3.10;;
5040;SDS011;2539;52.568;13.364;2023-08-30T15:12:59;2.75;;;2.50;;